Decoded Metar for KMYJ ( in ) (IATA:) | Meteo·Mobile Aviation Weather
aviador You're here:

KMYJ Decoded Metar

in
Report Time2019-03-19 18:55:00
UTC Time2019-03-19 18:56:04
Flight Rules vfr VFR
Wind170° at 07 kt
W.Decomp.*RWY 18: 6.9 kt HW 1.2 kt LCW
RWY 24: 2.4 kt HW 6.6 kt LCW
W.Rank170° ranks 1
Current wind is below 170° avg. (8.5)
Visibility9999 m
Phenomena:N/A
Clouds:Overcast 050 Hf
Expected CloudBase > 2,800 ft AGL from Temp-Dew spread
Ceiling5,000 ft
Temp07°C
Dew Point00°C (61% RH)
AAT2.5°C
QNH1027 hPa
Raw Report
KMYJ 191855Z AUTO 17007KT 10SM OVC050 07/00 A3034 RMK AO2=

Extra information for KMYJ:More info

Social comments